Armour, SD

4:48 AM CDT on September 19, 2014 (GMT -0500)
Metzgerville | Change Station
CLOSE
Current Station
Personal Weather Station
Location: Mount Vernon, SD
Elevation: 1660 ft
Nearby Weather Stations

Elev 1660 ft 43.52 °N, 98.26 °W | Updated 3 minutes ago

Overcast
Overcast
61.6 °F
Feels Like 61.6 °F
N
13.5
Wind Variable Wind from SSE

Today
High -- | Low -- °F
--% Chance of Precip.
Yesterday
High -- | Low -- °F
Precip. -- in
7:17 AM 7:36 PM
Waning Crescent, 20% visible
Pressure 29.78 in
Visibility 10.0 miles
Clouds Overcast 900 ft
Dew Point 61 °F
Humidity 97%
Rainfall 0.00 in
Snow Depth 0 in
UV 0 out of 12
Pollen 5.20 out of 12
Air Quality Not available.
Flu Activity Not available.
SPECI KMHE 190936Z AUTO 16010KT 10SM OVC009 17/15 A2978 RMK AO2 T01670150 $

More Conditions Fewer Conditions

Pressure 29.78 in
Visibility 10.0 miles
Clouds Overcast 900 ft
Dew Point 61 °F
Humidity 97%
Rainfall 0.00 in
Snow Depth 0 in
UV 0 out of 12
Pollen 5.20 out of 12
Air Quality Not available.
Flu Activity Not available.
SPECI KMHE 190936Z AUTO 16010KT 10SM OVC009 17/15 A2978 RMK AO2 T01670150 $

More Conditions Fewer Conditions

10-Day Weather Forecast

Almanac

Astronomy

Sep. 19, 2014 Rise Set
Actual Time 7:17 AM CDT 7:36 PM CDT
Civil Twilight 6:48 AM CDT 8:04 PM CDT
Nautical Twilight 6:15 AM CDT 8:38 PM CDT
Astronomical Twilight 5:40 AM CDT 9:12 PM CDT
Moon 2:58 AM CDT 5:10 PM CDT
Length of Visible Light 13h 15m
Length of Day
12h 18m
Tomorrow will be 2m 56s shorter.
Waning Crescent, 20% of the Moon is Illuminated
Today
Waning Crescent
Sep 24
New
Oct 1
First Quarter
Oct 8
Full
Oct 15
Last Quarter

Today's Extremes

State Highs State Lows

Community

WunderPhotos

Upload Photos

1,754,583 photos uploaded!

Nearby

Snow Depth

Station Depth Elevation
Blind Park 0 in 6890 ft

Earthquake Activity

City Distance Mag. Time & Date
No recent earthquake activity has been reported nearby.
Minimum magnitude displayed is 2.5.

Coastal Water Temperatures

Place Temperature
No Stations Reporting

Nearby Weather Stations